sensor_id;sensor_type;location;lat;lon;timestamp;temperature;humidity
17762;DHT22;9005;48.838;10.112;2023-07-31T00:00:02;13.50;1.00
17762;DHT22;9005;48.838;10.112;2023-07-31T00:02:30;13.50;1.00
17762;DHT22;9005;48.838;10.112;2023-07-31T00:04:57;13.50;1.00
17762;DHT22;9005;48.838;10.112;2023-07-31T00:07:23;13.60;1.00
17762;DHT22;9005;48.838;10.112;2023-07-31T00:09:50;13.50;1.00
17762;DHT22;9005;48.838;10.112;2023-07-31T00:12:19;13.50;1.00
17762;DHT22;9005;48.838;10.112;2023-07-31T00:14:45;13.50;1.00
17762;DHT22;9005;48.838;10.112;2023-07-31T00:17:12;13.50;1.00
17762;DHT22;9005;48.838;10.112;2023-07-31T00:19:40;13.50;1.00
17762;DHT22;9005;48.838;10.112;2023-07-31T00:22:07;13.50;1.00
17762;DHT22;9005;48.838;10.112;2023-07-31T00:24:34;13.60;99.90
17762;DHT22;9005;48.838;10.112;2023-07-31T00:27:00;13.60;99.90
17762;DHT22;9005;48.838;10.112;2023-07-31T00:29:27;13.60;99.90
17762;DHT22;9005;48.838;10.112;2023-07-31T00:31:54;13.60;99.90
17762;DHT22;9005;48.838;10.112;2023-07-31T00:34:20;13.60;99.90
17762;DHT22;9005;48.838;10.112;2023-07-31T00:36:48;13.60;99.90
17762;DHT22;9005;48.838;10.112;2023-07-31T00:39:15;13.60;99.90
17762;DHT22;9005;48.838;10.112;2023-07-31T00:41:42;13.60;99.90
17762;DHT22;9005;48.838;10.112;2023-07-31T00:44:09;13.60;99.90
17762;DHT22;9005;48.838;10.112;2023-07-31T00:46:36;13.60;99.90
17762;DHT22;9005;48.838;10.112;2023-07-31T00:49:03;13.60;99.90
17762;DHT22;9005;48.838;10.112;2023-07-31T00:51:30;13.60;99.90
17762;DHT22;9005;48.838;10.112;2023-07-31T00:53:59;13.60;99.90
17762;DHT22;9005;48.838;10.112;2023-07-31T00:56:26;14.60;99.90
17762;DHT22;9005;48.838;10.112;2023-07-31T00:58:54;13.60;99.90
17762;DHT22;9005;48.838;10.112;2023-07-31T01:01:21;13.60;99.90
17762;DHT22;9005;48.838;10.112;2023-07-31T01:03:49;13.60;99.90
17762;DHT22;9005;48.838;10.112;2023-07-31T01:06:24;13.50;99.90
17762;DHT22;9005;48.838;10.112;2023-07-31T01:08:59;13.50;99.90
17762;DHT22;9005;48.838;10.112;2023-07-31T01:11:29;13.50;99.90
17762;DHT22;9005;48.838;10.112;2023-07-31T01:13:57;13.50;99.90
17762;DHT22;9005;48.838;10.112;2023-07-31T01:16:25;13.40;99.90
17762;DHT22;9005;48.838;10.112;2023-07-31T01:18:51;13.40;99.90
17762;DHT22;9005;48.838;10.112;2023-07-31T01:21:49;13.40;99.90
17762;DHT22;9005;48.838;10.112;2023-07-31T01:24:29;13.30;99.90
17762;DHT22;9005;48.838;10.112;2023-07-31T01:27:06;13.30;99.90
17762;DHT22;9005;48.838;10.112;2023-07-31T01:29:38;13.30;99.90
17762;DHT22;9005;48.838;10.112;2023-07-31T01:32:09;13.20;99.90
17762;DHT22;9005;48.838;10.112;2023-07-31T01:34:37;13.30;1.00
17762;DHT22;9005;48.838;10.112;2023-07-31T01:37:04;13.20;1.00
17762;DHT22;9005;48.838;10.112;2023-07-31T01:39:31;13.20;1.00
17762;DHT22;9005;48.838;10.112;2023-07-31T01:41:59;13.10;1.00
17762;DHT22;9005;48.838;10.112;2023-07-31T01:44:26;13.10;1.00
17762;DHT22;9005;48.838;10.112;2023-07-31T01:46:53;13.10;1.00
17762;DHT22;9005;48.838;10.112;2023-07-31T01:49:20;13.00;1.00
17762;DHT22;9005;48.838;10.112;2023-07-31T01:51:47;13.00;1.00
17762;DHT22;9005;48.838;10.112;2023-07-31T01:54:13;12.90;1.00
17762;DHT22;9005;48.838;10.112;2023-07-31T01:56:40;12.90;1.00
17762;DHT22;9005;48.838;10.112;2023-07-31T01:59:08;12.80;1.00
17762;DHT22;9005;48.838;10.112;2023-07-31T02:01:35;12.80;1.00
17762;DHT22;9005;48.838;10.112;2023-07-31T02:04:02;12.80;1.00
17762;DHT22;9005;48.838;10.112;2023-07-31T02:06:30;12.80;1.00
17762;DHT22;9005;48.838;10.112;2023-07-31T02:08:57;12.70;1.00
17762;DHT22;9005;48.838;10.112;2023-07-31T02:11:23;12.70;1.00
17762;DHT22;9005;48.838;10.112;2023-07-31T02:13:50;12.70;1.00
17762;DHT22;9005;48.838;10.112;2023-07-31T02:16:18;12.70;1.00
17762;DHT22;9005;48.838;10.112;2023-07-31T02:18:45;12.70;1.00
17762;DHT22;9005;48.838;10.112;2023-07-31T02:21:11;12.70;1.00
17762;DHT22;9005;48.838;10.112;2023-07-31T02:23:38;12.70;1.00
17762;DHT22;9005;48.838;10.112;2023-07-31T02:26:05;12.60;1.00
17762;DHT22;9005;48.838;10.112;2023-07-31T02:28:32;12.70;1.00
17762;DHT22;9005;48.838;10.112;2023-07-31T02:30:59;12.70;1.00
17762;DHT22;9005;48.838;10.112;2023-07-31T02:33:27;12.70;1.00
17762;DHT22;9005;48.838;10.112;2023-07-31T02:35:54;12.70;1.00
17762;DHT22;9005;48.838;10.112;2023-07-31T02:38:21;12.70;1.00
17762;DHT22;9005;48.838;10.112;2023-07-31T02:40:47;12.70;1.00
17762;DHT22;9005;48.838;10.112;2023-07-31T02:43:14;12.70;1.00
17762;DHT22;9005;48.838;10.112;2023-07-31T02:45:41;12.70;1.00
17762;DHT22;9005;48.838;10.112;2023-07-31T02:48:08;12.60;1.00
17762;DHT22;9005;48.838;10.112;2023-07-31T02:50:36;12.60;1.00
17762;DHT22;9005;48.838;10.112;2023-07-31T02:53:03;12.60;1.00
17762;DHT22;9005;48.838;10.112;2023-07-31T03:24:59;12.90;1.00
17762;DHT22;9005;48.838;10.112;2023-07-31T03:27:25;12.80;1.00
17762;DHT22;9005;48.838;10.112;2023-07-31T03:29:52;12.70;1.00
17762;DHT22;9005;48.838;10.112;2023-07-31T03:32:19;12.60;1.00
17762;DHT22;9005;48.838;10.112;2023-07-31T03:34:46;12.60;1.00
17762;DHT22;9005;48.838;10.112;2023-07-31T03:37:12;12.60;1.00
17762;DHT22;9005;48.838;10.112;2023-07-31T03:39:39;12.60;4.00
17762;DHT22;9005;48.838;10.112;2023-07-31T03:42:07;12.60;9.60
17762;DHT22;9005;48.838;10.112;2023-07-31T03:44:34;12.60;2.70
17762;DHT22;9005;48.838;10.112;2023-07-31T03:47:01;12.60;16.60
17762;DHT22;9005;48.838;10.112;2023-07-31T03:49:28;12.60;10.10
17762;DHT22;9005;48.838;10.112;2023-07-31T03:51:54;12.70;4.90
17762;DHT22;9005;48.838;10.112;2023-07-31T03:54:21;12.70;11.30
17762;DHT22;9005;48.838;10.112;2023-07-31T03:56:48;12.70;1.00
17762;DHT22;9005;48.838;10.112;2023-07-31T03:59:16;12.70;1.00
17762;DHT22;9005;48.838;10.112;2023-07-31T04:01:43;12.70;1.00
17762;DHT22;9005;48.838;10.112;2023-07-31T04:04:09;12.70;5.10
17762;DHT22;9005;48.838;10.112;2023-07-31T04:06:36;12.80;1.00
17762;DHT22;9005;48.838;10.112;2023-07-31T04:09:03;12.80;1.00
17762;DHT22;9005;48.838;10.112;2023-07-31T04:11:30;12.80;4.20
17762;DHT22;9005;48.838;10.112;2023-07-31T04:13:56;12.80;2.80
17762;DHT22;9005;48.838;10.112;2023-07-31T04:16:24;12.80;2.90
17762;DHT22;9005;48.838;10.112;2023-07-31T04:18:51;12.80;14.90
17762;DHT22;9005;48.838;10.112;2023-07-31T04:21:18;12.80;21.60
17762;DHT22;9005;48.838;10.112;2023-07-31T04:23:45;12.80;29.30
17762;DHT22;9005;48.838;10.112;2023-07-31T04:26:11;12.80;32.20
17762;DHT22;9005;48.838;10.112;2023-07-31T04:28:38;12.80;27.50
17762;DHT22;9005;48.838;10.112;2023-07-31T04:31:05;12.80;40.00
17762;DHT22;9005;48.838;10.112;2023-07-31T04:33:33;12.80;43.30
17762;DHT22;9005;48.838;10.112;2023-07-31T04:35:59;12.90;39.30
17762;DHT22;9005;48.838;10.112;2023-07-31T04:38:26;12.90;31.10
17762;DHT22;9005;48.838;10.112;2023-07-31T04:40:53;12.90;43.10
17762;DHT22;9005;48.838;10.112;2023-07-31T04:43:20;12.90;5.70
17762;DHT22;9005;48.838;10.112;2023-07-31T04:45:46;12.90;29.30
17762;DHT22;9005;48.838;10.112;2023-07-31T04:48:14;13.00;41.10
17762;DHT22;9005;48.838;10.112;2023-07-31T04:50:42;13.00;56.40
17762;DHT22;9005;48.838;10.112;2023-07-31T04:53:09;13.10;66.80
17762;DHT22;9005;48.838;10.112;2023-07-31T04:55:35;13.10;52.00
17762;DHT22;9005;48.838;10.112;2023-07-31T04:58:02;13.10;47.20
17762;DHT22;9005;48.838;10.112;2023-07-31T05:00:29;13.10;31.00
17762;DHT22;9005;48.838;10.112;2023-07-31T05:02:55;13.20;29.10
17762;DHT22;9005;48.838;10.112;2023-07-31T05:05:22;13.20;7.40
17762;DHT22;9005;48.838;10.112;2023-07-31T05:07:50;13.30;18.80
17762;DHT22;9005;48.838;10.112;2023-07-31T05:10:17;13.30;29.90
17762;DHT22;9005;48.838;10.112;2023-07-31T05:12:44;13.40;18.20
17762;DHT22;9005;48.838;10.112;2023-07-31T05:15:11;13.40;13.20
17762;DHT22;9005;48.838;10.112;2023-07-31T05:17:37;13.50;1.00
17762;DHT22;9005;48.838;10.112;2023-07-31T05:20:05;13.50;1.00
17762;DHT22;9005;48.838;10.112;2023-07-31T05:22:32;13.60;1.00
17762;DHT22;9005;48.838;10.112;2023-07-31T05:25:00;13.70;1.00
17762;DHT22;9005;48.838;10.112;2023-07-31T05:27:27;13.70;1.00
17762;DHT22;9005;48.838;10.112;2023-07-31T05:29:53;13.80;1.00
17762;DHT22;9005;48.838;10.112;2023-07-31T05:32:20;13.80;1.00
17762;DHT22;9005;48.838;10.112;2023-07-31T05:34:47;13.90;1.00
17762;DHT22;9005;48.838;10.112;2023-07-31T05:37:14;13.90;1.00
17762;DHT22;9005;48.838;10.112;2023-07-31T05:39:41;14.00;1.00
17762;DHT22;9005;48.838;10.112;2023-07-31T05:42:09;14.00;1.00
17762;DHT22;9005;48.838;10.112;2023-07-31T05:44:35;14.10;99.90
17762;DHT22;9005;48.838;10.112;2023-07-31T05:47:02;14.10;1.00
17762;DHT22;9005;48.838;10.112;2023-07-31T05:49:30;14.20;1.00
17762;DHT22;9005;48.838;10.112;2023-07-31T05:51:56;14.20;1.00
17762;DHT22;9005;48.838;10.112;2023-07-31T05:54:23;14.40;99.90
17762;DHT22;9005;48.838;10.112;2023-07-31T05:56:50;14.40;99.90
17762;DHT22;9005;48.838;10.112;2023-07-31T05:59:18;14.60;1.00
17762;DHT22;9005;48.838;10.112;2023-07-31T06:01:45;14.70;1.00
17762;DHT22;9005;48.838;10.112;2023-07-31T06:04:12;14.80;99.90
17762;DHT22;9005;48.838;10.112;2023-07-31T06:06:38;14.90;99.90
17762;DHT22;9005;48.838;10.112;2023-07-31T06:09:05;15.00;99.90
17762;DHT22;9005;48.838;10.112;2023-07-31T06:11:32;15.20;99.90
17762;DHT22;9005;48.838;10.112;2023-07-31T06:13:59;15.20;99.90
17762;DHT22;9005;48.838;10.112;2023-07-31T06:16:27;15.30;97.70
17762;DHT22;9005;48.838;10.112;2023-07-31T06:18:54;15.40;99.90
17762;DHT22;9005;48.838;10.112;2023-07-31T06:21:21;15.40;99.90
17762;DHT22;9005;48.838;10.112;2023-07-31T06:23:47;15.50;16.10
17762;DHT22;9005;48.838;10.112;2023-07-31T06:26:14;15.50;37.30
17762;DHT22;9005;48.838;10.112;2023-07-31T06:28:41;15.60;99.90
17762;DHT22;9005;48.838;10.112;2023-07-31T06:31:08;15.60;57.50
17762;DHT22;9005;48.838;10.112;2023-07-31T06:33:36;15.70;23.50
17762;DHT22;9005;48.838;10.112;2023-07-31T06:36:03;15.80;23.00
17762;DHT22;9005;48.838;10.112;2023-07-31T06:38:30;15.90;1.00
17762;DHT22;9005;48.838;10.112;2023-07-31T06:40:56;15.90;1.00
17762;DHT22;9005;48.838;10.112;2023-07-31T06:43:23;16.00;1.00
17762;DHT22;9005;48.838;10.112;2023-07-31T06:45:50;16.10;1.00
17762;DHT22;9005;48.838;10.112;2023-07-31T06:48:17;16.20;1.00
17762;DHT22;9005;48.838;10.112;2023-07-31T06:50:45;16.30;1.00
17762;DHT22;9005;48.838;10.112;2023-07-31T06:53:11;16.30;99.90
17762;DHT22;9005;48.838;10.112;2023-07-31T06:55:38;16.30;1.00
17762;DHT22;9005;48.838;10.112;2023-07-31T06:58:05;16.30;99.90
17762;DHT22;9005;48.838;10.112;2023-07-31T07:00:32;16.30;1.00
17762;DHT22;9005;48.838;10.112;2023-07-31T07:02:59;16.30;1.00
17762;DHT22;9005;48.838;10.112;2023-07-31T07:05:25;16.40;3.60
17762;DHT22;9005;48.838;10.112;2023-07-31T07:07:53;16.40;1.00
17762;DHT22;9005;48.838;10.112;2023-07-31T07:10:20;16.60;1.00
17762;DHT22;9005;48.838;10.112;2023-07-31T07:12:48;16.80;1.00
17762;DHT22;9005;48.838;10.112;2023-07-31T07:15:15;17.00;1.00
17762;DHT22;9005;48.838;10.112;2023-07-31T07:17:42;17.20;99.90
17762;DHT22;9005;48.838;10.112;2023-07-31T07:20:09;17.30;99.90
17762;DHT22;9005;48.838;10.112;2023-07-31T07:22:35;17.20;99.90
17762;DHT22;9005;48.838;10.112;2023-07-31T07:25:04;17.10;99.90
17762;DHT22;9005;48.838;10.112;2023-07-31T07:27:32;17.00;99.90
17762;DHT22;9005;48.838;10.112;2023-07-31T07:29:59;17.00;99.90
17762;DHT22;9005;48.838;10.112;2023-07-31T07:32:26;17.00;99.90
17762;DHT22;9005;48.838;10.112;2023-07-31T07:34:53;17.10;99.90
17762;DHT22;9005;48.838;10.112;2023-07-31T07:37:19;17.20;99.90
17762;DHT22;9005;48.838;10.112;2023-07-31T07:39:46;17.20;99.90
17762;DHT22;9005;48.838;10.112;2023-07-31T07:42:14;17.30;99.90
17762;DHT22;9005;48.838;10.112;2023-07-31T07:44:41;17.40;99.90
17762;DHT22;9005;48.838;10.112;2023-07-31T07:47:08;17.40;91.70
17762;DHT22;9005;48.838;10.112;2023-07-31T07:49:35;17.40;14.30
17762;DHT22;9005;48.838;10.112;2023-07-31T07:52:03;17.30;4.30
17762;DHT22;9005;48.838;10.112;2023-07-31T07:54:30;17.30;26.10
17762;DHT22;9005;48.838;10.112;2023-07-31T07:56:57;17.30;5.50
17762;DHT22;9005;48.838;10.112;2023-07-31T07:59:25;17.30;2.40
17762;DHT22;9005;48.838;10.112;2023-07-31T08:01:52;17.20;3.50
17762;DHT22;9005;48.838;10.112;2023-07-31T08:04:19;17.30;36.60
17762;DHT22;9005;48.838;10.112;2023-07-31T08:06:45;17.40;9.80
17762;DHT22;9005;48.838;10.112;2023-07-31T08:09:12;17.40;1.00
17762;DHT22;9005;48.838;10.112;2023-07-31T08:11:39;17.50;1.00
17762;DHT22;9005;48.838;10.112;2023-07-31T08:14:05;17.50;1.00
17762;DHT22;9005;48.838;10.112;2023-07-31T08:16:34;17.60;23.70
17762;DHT22;9005;48.838;10.112;2023-07-31T08:19:00;17.60;1.00
17762;DHT22;9005;48.838;10.112;2023-07-31T08:21:27;17.60;1.00
17762;DHT22;9005;48.838;10.112;2023-07-31T08:23:54;17.60;1.00
17762;DHT22;9005;48.838;10.112;2023-07-31T08:26:21;17.50;1.00
17762;DHT22;9005;48.838;10.112;2023-07-31T08:28:47;17.60;1.00
17762;DHT22;9005;48.838;10.112;2023-07-31T08:31:14;17.60;1.00
17762;DHT22;9005;48.838;10.112;2023-07-31T08:33:42;17.70;1.00
17762;DHT22;9005;48.838;10.112;2023-07-31T08:36:09;17.80;4.90
17762;DHT22;9005;48.838;10.112;2023-07-31T08:38:36;17.90;1.00
17762;DHT22;9005;48.838;10.112;2023-07-31T08:41:03;18.00;1.00
17762;DHT22;9005;48.838;10.112;2023-07-31T08:43:31;18.00;1.00
17762;DHT22;9005;48.838;10.112;2023-07-31T08:45:58;18.00;1.00
17762;DHT22;9005;48.838;10.112;2023-07-31T08:48:25;18.10;1.00
17762;DHT22;9005;48.838;10.112;2023-07-31T08:50:53;18.30;1.00
17762;DHT22;9005;48.838;10.112;2023-07-31T08:53:20;18.30;1.00
17762;DHT22;9005;48.838;10.112;2023-07-31T08:55:48;18.30;1.00
17762;DHT22;9005;48.838;10.112;2023-07-31T08:58:17;18.40;1.00
17762;DHT22;9005;48.838;10.112;2023-07-31T09:00:46;18.50;1.00
17762;DHT22;9005;48.838;10.112;2023-07-31T09:03:14;18.50;1.00
17762;DHT22;9005;48.838;10.112;2023-07-31T09:05:42;18.60;1.00
17762;DHT22;9005;48.838;10.112;2023-07-31T09:08:12;18.70;1.00
17762;DHT22;9005;48.838;10.112;2023-07-31T09:10:43;18.80;1.00
17762;DHT22;9005;48.838;10.112;2023-07-31T09:13:11;18.80;1.00
17762;DHT22;9005;48.838;10.112;2023-07-31T09:15:39;18.90;1.00
17762;DHT22;9005;48.838;10.112;2023-07-31T09:18:08;18.90;1.00
17762;DHT22;9005;48.838;10.112;2023-07-31T09:20:36;18.90;1.00
17762;DHT22;9005;48.838;10.112;2023-07-31T09:23:07;19.00;1.00
17762;DHT22;9005;48.838;10.112;2023-07-31T09:25:36;19.10;1.00
17762;DHT22;9005;48.838;10.112;2023-07-31T09:28:04;19.20;1.00
17762;DHT22;9005;48.838;10.112;2023-07-31T09:30:44;19.40;1.00
17762;DHT22;9005;48.838;10.112;2023-07-31T09:33:11;19.40;1.00
17762;DHT22;9005;48.838;10.112;2023-07-31T09:35:39;19.60;1.00
17762;DHT22;9005;48.838;10.112;2023-07-31T09:38:08;19.80;1.00
17762;DHT22;9005;48.838;10.112;2023-07-31T09:40:38;19.80;1.00
17762;DHT22;9005;48.838;10.112;2023-07-31T09:43:06;19.70;1.00
17762;DHT22;9005;48.838;10.112;2023-07-31T09:45:34;19.80;1.00
17762;DHT22;9005;48.838;10.112;2023-07-31T09:48:02;19.80;1.00
17762;DHT22;9005;48.838;10.112;2023-07-31T09:50:29;19.90;1.00
17762;DHT22;9005;48.838;10.112;2023-07-31T09:52:56;19.90;1.00
17762;DHT22;9005;48.838;10.112;2023-07-31T09:55:24;20.10;1.00
17762;DHT22;9005;48.838;10.112;2023-07-31T09:57:53;20.20;1.00
17762;DHT22;9005;48.838;10.112;2023-07-31T10:00:21;20.30;1.00
17762;DHT22;9005;48.838;10.112;2023-07-31T10:05:19;20.40;1.00
17762;DHT22;9005;48.838;10.112;2023-07-31T10:07:51;20.40;1.00
17762;DHT22;9005;48.838;10.112;2023-07-31T10:10:21;20.60;1.00
17762;DHT22;9005;48.838;10.112;2023-07-31T10:12:48;20.90;1.00
17762;DHT22;9005;48.838;10.112;2023-07-31T10:15:17;21.00;1.00
17762;DHT22;9005;48.838;10.112;2023-07-31T10:17:46;20.90;1.00
17762;DHT22;9005;48.838;10.112;2023-07-31T10:20:14;20.80;1.00
17762;DHT22;9005;48.838;10.112;2023-07-31T10:22:42;20.90;1.00
17762;DHT22;9005;48.838;10.112;2023-07-31T10:25:09;21.00;1.00
17762;DHT22;9005;48.838;10.112;2023-07-31T10:27:38;21.00;1.00
17762;DHT22;9005;48.838;10.112;2023-07-31T10:30:08;21.10;1.00
17762;DHT22;9005;48.838;10.112;2023-07-31T10:32:38;21.10;1.00
17762;DHT22;9005;48.838;10.112;2023-07-31T10:35:06;21.20;1.00
17762;DHT22;9005;48.838;10.112;2023-07-31T10:37:37;21.10;1.00
17762;DHT22;9005;48.838;10.112;2023-07-31T10:40:05;21.10;1.00
17762;DHT22;9005;48.838;10.112;2023-07-31T10:42:33;21.20;1.00
17762;DHT22;9005;48.838;10.112;2023-07-31T10:45:03;21.10;1.00
17762;DHT22;9005;48.838;10.112;2023-07-31T10:47:30;21.00;1.00
17762;DHT22;9005;48.838;10.112;2023-07-31T10:50:19;21.20;1.00
17762;DHT22;9005;48.838;10.112;2023-07-31T10:52:47;21.50;1.00
17762;DHT22;9005;48.838;10.112;2023-07-31T10:55:31;21.90;1.00
17762;DHT22;9005;48.838;10.112;2023-07-31T10:58:06;22.20;99.90
17762;DHT22;9005;48.838;10.112;2023-07-31T11:00:33;22.60;99.90
17762;DHT22;9005;48.838;10.112;2023-07-31T11:03:02;22.70;99.90
17762;DHT22;9005;48.838;10.112;2023-07-31T11:05:43;22.70;99.90
17762;DHT22;9005;48.838;10.112;2023-07-31T11:08:14;23.10;99.90
17762;DHT22;9005;48.838;10.112;2023-07-31T11:10:42;23.30;99.90
17762;DHT22;9005;48.838;10.112;2023-07-31T11:13:09;23.90;99.90
17762;DHT22;9005;48.838;10.112;2023-07-31T11:15:36;24.90;99.90
17762;DHT22;9005;48.838;10.112;2023-07-31T11:18:03;24.80;99.90
17762;DHT22;9005;48.838;10.112;2023-07-31T11:20:31;24.60;99.90
17762;DHT22;9005;48.838;10.112;2023-07-31T11:23:01;23.90;99.90
17762;DHT22;9005;48.838;10.112;2023-07-31T11:25:29;23.50;99.90
17762;DHT22;9005;48.838;10.112;2023-07-31T11:27:56;23.10;99.90
17762;DHT22;9005;48.838;10.112;2023-07-31T11:30:23;22.60;99.90
17762;DHT22;9005;48.838;10.112;2023-07-31T11:32:50;22.40;99.90
17762;DHT22;9005;48.838;10.112;2023-07-31T11:35:17;22.60;99.90
17762;DHT22;9005;48.838;10.112;2023-07-31T11:37:44;22.60;99.90
17762;DHT22;9005;48.838;10.112;2023-07-31T11:40:13;22.40;99.90
17762;DHT22;9005;48.838;10.112;2023-07-31T11:42:40;22.40;99.90
17762;DHT22;9005;48.838;10.112;2023-07-31T11:45:08;22.40;99.90
17762;DHT22;9005;48.838;10.112;2023-07-31T11:47:36;22.50;99.90
17762;DHT22;9005;48.838;10.112;2023-07-31T11:50:04;22.60;99.90
17762;DHT22;9005;48.838;10.112;2023-07-31T11:52:34;22.70;99.90
17762;DHT22;9005;48.838;10.112;2023-07-31T11:55:03;22.60;99.90
17762;DHT22;9005;48.838;10.112;2023-07-31T11:57:31;22.60;99.90
17762;DHT22;9005;48.838;10.112;2023-07-31T11:59:59;22.60;99.90
17762;DHT22;9005;48.838;10.112;2023-07-31T12:02:26;22.60;99.90
17762;DHT22;9005;48.838;10.112;2023-07-31T12:04:53;22.40;99.90
17762;DHT22;9005;48.838;10.112;2023-07-31T12:07:19;22.40;99.90
17762;DHT22;9005;48.838;10.112;2023-07-31T12:09:55;22.70;99.90
17762;DHT22;9005;48.838;10.112;2023-07-31T12:12:24;23.20;99.90
17762;DHT22;9005;48.838;10.112;2023-07-31T12:17:20;23.90;99.90
17762;DHT22;9005;48.838;10.112;2023-07-31T12:19:48;23.80;99.90
17762;DHT22;9005;48.838;10.112;2023-07-31T12:22:16;23.70;99.90
17762;DHT22;9005;48.838;10.112;2023-07-31T12:24:44;23.50;99.90
17762;DHT22;9005;48.838;10.112;2023-07-31T12:27:11;23.70;99.90
17762;DHT22;9005;48.838;10.112;2023-07-31T12:29:38;23.80;99.90
17762;DHT22;9005;48.838;10.112;2023-07-31T12:32:20;23.90;99.90
17762;DHT22;9005;48.838;10.112;2023-07-31T12:34:46;24.10;99.90
17762;DHT22;9005;48.838;10.112;2023-07-31T12:37:13;23.90;99.90
17762;DHT22;9005;48.838;10.112;2023-07-31T12:39:40;24.00;99.90
17762;DHT22;9005;48.838;10.112;2023-07-31T12:42:07;24.40;99.90
17762;DHT22;9005;48.838;10.112;2023-07-31T12:44:33;24.30;99.90
17762;DHT22;9005;48.838;10.112;2023-07-31T12:47:00;23.90;99.90
17762;DHT22;9005;48.838;10.112;2023-07-31T12:49:28;23.30;99.90
17762;DHT22;9005;48.838;10.112;2023-07-31T12:51:55;23.00;99.90
17762;DHT22;9005;48.838;10.112;2023-07-31T12:54:22;22.70;99.90
17762;DHT22;9005;48.838;10.112;2023-07-31T12:56:48;22.60;99.90
17762;DHT22;9005;48.838;10.112;2023-07-31T12:59:15;22.60;99.90
17762;DHT22;9005;48.838;10.112;2023-07-31T13:01:42;22.60;99.90
17762;DHT22;9005;48.838;10.112;2023-07-31T13:04:09;22.40;99.90
17762;DHT22;9005;48.838;10.112;2023-07-31T13:06:37;22.30;99.90
17762;DHT22;9005;48.838;10.112;2023-07-31T13:09:03;22.30;99.90
17762;DHT22;9005;48.838;10.112;2023-07-31T13:11:30;22.40;99.90
17762;DHT22;9005;48.838;10.112;2023-07-31T13:13:57;22.40;99.90
17762;DHT22;9005;48.838;10.112;2023-07-31T13:16:24;22.50;99.90
17762;DHT22;9005;48.838;10.112;2023-07-31T13:18:50;23.10;99.90
17762;DHT22;9005;48.838;10.112;2023-07-31T13:21:18;23.90;99.90
17762;DHT22;9005;48.838;10.112;2023-07-31T13:23:48;24.10;99.90
17762;DHT22;9005;48.838;10.112;2023-07-31T13:26:15;24.40;99.90
17762;DHT22;9005;48.838;10.112;2023-07-31T13:28:41;24.60;99.90
17762;DHT22;9005;48.838;10.112;2023-07-31T13:31:08;24.60;99.90
17762;DHT22;9005;48.838;10.112;2023-07-31T13:33:36;24.50;99.90
17762;DHT22;9005;48.838;10.112;2023-07-31T13:36:03;24.70;99.90
17762;DHT22;9005;48.838;10.112;2023-07-31T13:38:30;25.10;99.90
17762;DHT22;9005;48.838;10.112;2023-07-31T13:40:58;25.50;99.90
17762;DHT22;9005;48.838;10.112;2023-07-31T13:43:25;25.20;99.90
17762;DHT22;9005;48.838;10.112;2023-07-31T13:45:52;24.70;99.90
17762;DHT22;9005;48.838;10.112;2023-07-31T13:48:18;24.40;99.90
17762;DHT22;9005;48.838;10.112;2023-07-31T13:50:45;24.20;99.90
17762;DHT22;9005;48.838;10.112;2023-07-31T13:53:12;24.50;99.90
17762;DHT22;9005;48.838;10.112;2023-07-31T13:55:39;24.60;99.90
17762;DHT22;9005;48.838;10.112;2023-07-31T13:58:07;24.50;99.90
17762;DHT22;9005;48.838;10.112;2023-07-31T14:00:34;24.40;99.90
17762;DHT22;9005;48.838;10.112;2023-07-31T14:03:01;24.40;99.90
17762;DHT22;9005;48.838;10.112;2023-07-31T14:05:28;24.20;99.90
17762;DHT22;9005;48.838;10.112;2023-07-31T14:07:55;24.00;99.90
17762;DHT22;9005;48.838;10.112;2023-07-31T14:10:21;23.90;99.90
17762;DHT22;9005;48.838;10.112;2023-07-31T14:12:48;23.80;99.90
17762;DHT22;9005;48.838;10.112;2023-07-31T14:15:16;23.60;99.90
17762;DHT22;9005;48.838;10.112;2023-07-31T14:17:43;23.40;99.90
17762;DHT22;9005;48.838;10.112;2023-07-31T14:20:11;23.30;99.90
17762;DHT22;9005;48.838;10.112;2023-07-31T14:22:38;23.10;99.90
17762;DHT22;9005;48.838;10.112;2023-07-31T14:25:05;22.80;99.90
17762;DHT22;9005;48.838;10.112;2023-07-31T14:27:33;22.50;99.90
17762;DHT22;9005;48.838;10.112;2023-07-31T14:30:00;22.30;99.90
17762;DHT22;9005;48.838;10.112;2023-07-31T14:32:28;22.20;1.00
17762;DHT22;9005;48.838;10.112;2023-07-31T14:34:54;22.10;1.00
17762;DHT22;9005;48.838;10.112;2023-07-31T14:37:21;22.20;1.00
17762;DHT22;9005;48.838;10.112;2023-07-31T14:39:48;22.00;99.90
17762;DHT22;9005;48.838;10.112;2023-07-31T14:42:15;21.90;1.00
17762;DHT22;9005;48.838;10.112;2023-07-31T14:44:43;21.80;1.00
17762;DHT22;9005;48.838;10.112;2023-07-31T14:47:12;21.80;1.00
17762;DHT22;9005;48.838;10.112;2023-07-31T14:49:40;21.70;99.90
17762;DHT22;9005;48.838;10.112;2023-07-31T14:52:07;21.70;99.90
17762;DHT22;9005;48.838;10.112;2023-07-31T14:54:34;21.60;1.00
17762;DHT22;9005;48.838;10.112;2023-07-31T14:57:01;21.50;99.90
17762;DHT22;9005;48.838;10.112;2023-07-31T14:59:28;21.60;1.00
17762;DHT22;9005;48.838;10.112;2023-07-31T15:01:55;21.80;99.90
17762;DHT22;9005;48.838;10.112;2023-07-31T15:04:22;22.10;99.90
17762;DHT22;9005;48.838;10.112;2023-07-31T15:06:51;22.30;99.90
17762;DHT22;9005;48.838;10.112;2023-07-31T15:09:18;22.30;99.90
17762;DHT22;9005;48.838;10.112;2023-07-31T15:11:45;22.60;99.90
17762;DHT22;9005;48.838;10.112;2023-07-31T15:14:12;23.00;99.90
17762;DHT22;9005;48.838;10.112;2023-07-31T15:16:38;23.00;99.90
17762;DHT22;9005;48.838;10.112;2023-07-31T15:19:05;23.20;99.90
17762;DHT22;9005;48.838;10.112;2023-07-31T15:21:32;23.30;99.90
17762;DHT22;9005;48.838;10.112;2023-07-31T15:24:00;22.90;99.90
17762;DHT22;9005;48.838;10.112;2023-07-31T15:26:27;22.90;99.90
17762;DHT22;9005;48.838;10.112;2023-07-31T15:28:57;22.60;99.90
17762;DHT22;9005;48.838;10.112;2023-07-31T15:31:26;22.40;99.90
17762;DHT22;9005;48.838;10.112;2023-07-31T15:33:53;22.40;99.90
17762;DHT22;9005;48.838;10.112;2023-07-31T15:36:20;22.40;99.90
17762;DHT22;9005;48.838;10.112;2023-07-31T15:38:47;22.40;99.90
17762;DHT22;9005;48.838;10.112;2023-07-31T15:41:17;22.60;99.90
17762;DHT22;9005;48.838;10.112;2023-07-31T15:43:44;22.70;99.90
17762;DHT22;9005;48.838;10.112;2023-07-31T15:46:13;22.90;99.90
17762;DHT22;9005;48.838;10.112;2023-07-31T15:48:40;23.00;99.90
17762;DHT22;9005;48.838;10.112;2023-07-31T15:51:07;23.10;99.90
17762;DHT22;9005;48.838;10.112;2023-07-31T15:53:34;23.30;99.90
17762;DHT22;9005;48.838;10.112;2023-07-31T15:56:01;23.50;99.90
17762;DHT22;9005;48.838;10.112;2023-07-31T15:58:29;23.70;99.90
17762;DHT22;9005;48.838;10.112;2023-07-31T16:00:56;23.80;99.90
17762;DHT22;9005;48.838;10.112;2023-07-31T16:03:23;23.70;99.90
17762;DHT22;9005;48.838;10.112;2023-07-31T16:05:49;23.40;99.90
17762;DHT22;9005;48.838;10.112;2023-07-31T16:08:16;23.30;99.90
17762;DHT22;9005;48.838;10.112;2023-07-31T16:10:43;23.30;99.90
17762;DHT22;9005;48.838;10.112;2023-07-31T16:13:10;23.40;99.90